createdAt,value
2019-04-05T00:00:28.940Z,28.70
2019-04-05T00:03:00.150Z,28.70
2019-04-05T00:05:31.169Z,28.70
2019-04-05T00:08:02.051Z,28.70
2019-04-05T00:10:32.952Z,28.70
2019-04-05T00:13:03.854Z,28.70
2019-04-05T00:15:37.855Z,28.80
2019-04-05T00:18:07.641Z,28.80
2019-04-05T00:20:38.482Z,28.80
2019-04-05T00:23:09.319Z,28.80
2019-04-05T00:25:40.347Z,28.80
2019-04-05T00:28:11.213Z,28.80
2019-04-05T00:30:42.050Z,28.90
2019-04-05T00:35:49.238Z,28.90
2019-04-05T00:38:20.277Z,28.90
2019-04-05T00:40:51.079Z,29.00
2019-04-05T00:43:21.631Z,29.10
2019-04-05T00:45:53.679Z,29.10
2019-04-05T00:48:24.225Z,29.10
2019-04-05T00:50:54.765Z,29.10
2019-04-05T00:53:25.570Z,29.20
2019-04-05T00:55:56.212Z,29.20
2019-04-05T00:58:26.780Z,29.30
2019-04-05T01:00:57.406Z,29.30
2019-04-05T01:03:27.957Z,29.30
2019-04-05T01:05:58.508Z,29.30
2019-04-05T01:08:29.218Z,29.30
2019-04-05T01:10:59.871Z,29.40
2019-04-05T01:13:31.308Z,29.40
2019-04-05T01:16:02.020Z,29.30
2019-04-05T01:18:32.567Z,29.40
2019-04-05T01:21:05.719Z,29.50
2019-04-05T01:23:37.268Z,29.50
2019-04-05T01:26:08.410Z,29.60
2019-04-05T01:28:39.254Z,29.60
2019-04-05T01:31:09.879Z,29.60
2019-04-05T01:33:40.538Z,29.70
2019-04-05T01:36:11.238Z,29.70
2019-04-05T01:38:41.789Z,29.70
2019-04-05T01:41:12.845Z,29.80
2019-04-05T01:43:43.672Z,29.90
2019-04-05T01:46:15.026Z,29.80
2019-04-05T01:48:45.551Z,29.80
2019-04-05T01:51:16.451Z,29.90
2019-04-05T01:53:47.293Z,30.00
2019-04-05T01:56:18.332Z,30.00
2019-04-05T01:58:49.310Z,30.10
2019-04-05T02:01:20.115Z,30.10
2019-04-05T02:03:50.618Z,30.20
2019-04-05T02:06:21.640Z,30.20
2019-04-05T02:08:52.327Z,30.20
2019-04-05T02:11:42.366Z,30.30
2019-04-05T02:14:13.135Z,30.40
2019-04-05T02:16:43.734Z,30.40
2019-04-05T02:19:14.374Z,30.50
2019-04-05T02:21:45.118Z,30.50
2019-04-05T02:24:15.737Z,30.50
2019-04-05T02:26:46.674Z,30.50
2019-04-05T02:29:17.114Z,30.60
2019-04-05T02:31:47.646Z,30.70
2019-04-05T02:34:19.877Z,30.70
2019-04-05T02:36:50.306Z,30.70
2019-04-05T02:39:20.831Z,30.70
2019-04-05T02:41:53.042Z,30.80
2019-04-05T02:44:24.358Z,30.80
2019-04-05T02:46:56.250Z,30.80
2019-04-05T02:49:29.913Z,30.90
2019-04-05T02:52:02.395Z,31.00
2019-04-05T02:54:34.019Z,31.00
2019-04-05T02:57:04.948Z,31.00
2019-04-05T02:59:37.011Z,31.10
2019-04-05T03:02:08.379Z,31.00
2019-04-05T03:04:40.341Z,31.00
2019-04-05T03:07:10.979Z,31.10
2019-04-05T03:09:41.751Z,31.10
2019-04-05T03:12:12.497Z,31.20
2019-04-05T03:14:43.538Z,31.30
2019-04-05T03:17:14.251Z,31.40
2019-04-05T03:19:46.247Z,31.40
2019-04-05T03:22:17.834Z,31.50
2019-04-05T03:24:48.560Z,31.50
2019-04-05T03:27:21.683Z,31.40
2019-04-05T03:29:53.300Z,31.60
2019-04-05T03:32:23.862Z,31.60
2019-04-05T03:34:57.051Z,31.60
2019-04-05T03:37:27.963Z,31.60
2019-04-05T03:39:58.514Z,31.70
2019-04-05T03:42:29.186Z,31.60
2019-04-05T03:45:00.418Z,31.70
2019-04-05T03:47:31.241Z,31.80
2019-04-05T03:50:01.961Z,31.80
2019-04-05T03:52:38.479Z,31.80
2019-04-05T03:55:09.464Z,31.80
2019-04-05T03:57:39.891Z,31.90
2019-04-05T04:00:10.509Z,32.00
2019-04-05T04:02:41.394Z,32.00
2019-04-05T04:05:11.905Z,32.00
2019-04-05T04:07:44.538Z,32.00
2019-04-05T04:10:17.749Z,32.10
2019-04-05T04:12:48.285Z,32.10
2019-04-05T04:15:19.021Z,32.00
2019-04-05T04:17:50.028Z,32.10
2019-04-05T04:20:36.277Z,32.10
2019-04-05T04:23:09.303Z,32.20
2019-04-05T04:25:41.526Z,32.20
2019-04-05T04:28:12.897Z,32.20
2019-04-05T04:30:46.279Z,32.20
2019-04-05T04:33:17.215Z,32.30
2019-04-05T04:35:48.246Z,32.30
2019-04-05T04:38:19.426Z,32.30
2019-04-05T04:40:50.254Z,32.30
2019-04-05T04:43:21.909Z,32.30
2019-04-05T04:45:52.702Z,32.40
2019-04-05T04:48:23.222Z,32.40
2019-04-05T04:50:54.116Z,32.50
2019-04-05T04:53:25.149Z,32.50
2019-04-05T04:55:55.769Z,32.50
2019-04-05T04:58:26.588Z,32.60
2019-04-05T05:00:57.606Z,32.70
2019-04-05T05:03:28.292Z,32.70
2019-04-05T05:05:58.986Z,32.90
2019-04-05T05:08:29.694Z,32.80
2019-04-05T05:11:00.212Z,32.80
2019-04-05T05:13:31.208Z,32.80
2019-04-05T05:16:01.945Z,32.80
2019-04-05T05:18:32.654Z,32.80
2019-04-05T05:21:03.241Z,32.80
2019-04-05T05:23:34.633Z,32.90
2019-04-05T05:26:05.263Z,32.90
2019-04-05T05:28:35.953Z,32.90
2019-04-05T05:31:06.470Z,33.10
2019-04-05T05:33:37.121Z,33.10
2019-04-05T05:36:10.374Z,33.10
2019-04-05T05:38:39.953Z,33.20
2019-04-05T05:41:10.483Z,33.20
2019-04-05T05:43:41.075Z,33.30
2019-04-05T05:46:11.487Z,33.30
2019-04-05T05:48:42.507Z,33.40
2019-04-05T05:51:13.241Z,33.40
2019-04-05T05:53:43.744Z,33.30
2019-04-05T05:56:14.449Z,33.40
2019-04-05T05:58:45.039Z,33.50
2019-04-05T06:01:15.465Z,33.50
2019-04-05T06:03:45.969Z,33.40
2019-04-05T06:06:16.565Z,33.40
2019-04-05T06:08:47.018Z,33.30
2019-04-05T06:11:17.448Z,33.40
2019-04-05T06:13:48.057Z,33.50
2019-04-05T06:19:14.989Z,33.60
2019-04-05T06:21:51.370Z,33.60
2019-04-05T06:24:26.601Z,33.60
2019-04-05T06:26:57.236Z,33.70
2019-04-05T06:29:32.819Z,33.80
2019-04-05T06:32:03.525Z,33.80
2019-04-05T06:34:34.013Z,33.90
2019-04-05T06:37:04.762Z,34.00
2019-04-05T06:39:35.411Z,34.00
2019-04-05T06:42:05.937Z,34.00
2019-04-05T06:45:37.724Z,34.10
2019-04-05T06:48:18.313Z,34.10
2019-04-05T06:50:40.268Z,34.20
2019-04-05T06:53:10.697Z,34.20
2019-04-05T06:55:41.137Z,34.20
2019-04-05T06:58:19.688Z,34.20
2019-04-05T07:00:56.509Z,34.20
2019-04-05T07:03:17.160Z,34.30
2019-04-05T07:05:47.588Z,34.30
2019-04-05T07:08:18.490Z,34.50
2019-04-05T07:10:49.244Z,34.60
2019-04-05T07:13:19.776Z,34.60
2019-04-05T07:15:50.314Z,34.60
2019-04-05T07:21:50.888Z,34.70
2019-04-05T07:24:22.487Z,34.70
2019-04-05T07:26:54.592Z,34.80
2019-04-05T07:29:25.983Z,34.90
2019-04-05T07:31:57.244Z,35.00
2019-04-05T07:34:28.161Z,34.90
2019-04-05T07:36:58.932Z,34.90
2019-04-05T07:39:29.372Z,34.90
2019-04-05T07:42:00.034Z,34.90
2019-04-05T07:44:30.991Z,35.00
2019-04-05T07:47:02.216Z,34.90
2019-04-05T07:50:09.660Z,34.90
2019-04-05T08:00:44.590Z,34.80
2019-04-05T08:03:15.585Z,34.80
2019-04-05T08:08:52.066Z,34.80
2019-04-05T08:11:24.171Z,34.80
2019-04-05T08:13:56.558Z,34.90
2019-04-05T08:16:27.107Z,34.80
2019-04-05T08:18:58.386Z,34.80
2019-04-05T08:21:29.238Z,34.80
2019-04-05T08:23:59.617Z,34.90
2019-04-05T08:26:30.026Z,34.80
2019-04-05T08:29:02.092Z,34.80
2019-04-05T08:31:32.796Z,34.80
2019-04-05T08:34:03.179Z,34.70
2019-04-05T08:36:33.718Z,34.70
2019-04-05T08:39:05.747Z,34.70
2019-04-05T08:41:36.132Z,34.70
2019-04-05T08:44:07.076Z,34.70
2019-04-05T08:46:37.477Z,34.60
2019-04-05T08:49:11.171Z,34.60
2019-04-05T08:51:40.109Z,34.60
2019-04-05T08:54:11.041Z,34.50
2019-04-05T08:56:42.067Z,34.50
2019-04-05T08:59:12.517Z,34.40
2019-04-05T09:01:42.968Z,34.30
2019-04-05T09:04:13.578Z,34.40
2019-04-05T09:06:44.311Z,34.30
2019-04-05T09:09:14.859Z,34.20
2019-04-05T09:11:46.122Z,34.10
2019-04-05T09:14:20.819Z,34.10
2019-04-05T09:16:51.971Z,34.10
2019-04-05T09:19:23.880Z,34.10
2019-04-05T09:21:56.454Z,34.10
2019-04-05T09:24:26.834Z,34.10
2019-04-05T09:27:16.602Z,34.10
2019-04-05T09:29:47.466Z,34.00
2019-04-05T09:32:18.167Z,33.90
2019-04-05T09:34:49.067Z,33.90
2019-04-05T09:37:19.699Z,33.90
2019-04-05T09:39:50.411Z,33.80
2019-04-05T09:42:21.453Z,33.60
2019-04-05T09:44:52.090Z,33.50
2019-04-05T09:47:22.495Z,33.50
2019-04-05T09:50:04.761Z,33.40
2019-04-05T09:52:35.446Z,33.30
2019-04-05T09:55:06.835Z,33.20
2019-04-05T09:57:37.431Z,33.20
2019-04-05T10:00:12.204Z,33.20
2019-04-05T10:02:44.110Z,33.10
2019-04-05T10:05:14.895Z,33.10
2019-04-05T10:07:54.675Z,33.00
2019-04-05T10:10:17.394Z,33.00
2019-04-05T10:12:49.245Z,32.80
2019-04-05T10:15:21.653Z,32.70
2019-04-05T10:17:55.232Z,32.70
2019-04-05T10:20:29.206Z,32.60
2019-04-05T10:23:01.096Z,32.60
2019-04-05T10:25:31.492Z,32.50
2019-04-05T10:28:03.265Z,32.40
2019-04-05T10:30:34.184Z,32.40
2019-04-05T10:33:04.949Z,32.30
2019-04-05T10:35:35.323Z,32.20
2019-04-05T10:38:06.644Z,32.10
2019-04-05T10:40:37.125Z,32.10
2019-04-05T10:43:12.126Z,32.10
2019-04-05T10:45:42.771Z,32.00
2019-04-05T10:48:13.159Z,31.90
2019-04-05T10:50:43.715Z,31.90
2019-04-05T10:53:14.127Z,31.80
2019-04-05T10:55:44.670Z,31.80
2019-04-05T10:58:15.246Z,31.70
2019-04-05T11:00:45.778Z,31.70
2019-04-05T11:03:16.203Z,31.60
2019-04-05T11:05:49.312Z,31.60
2019-04-05T11:08:19.086Z,31.60
2019-04-05T11:10:49.462Z,31.60
2019-04-05T11:13:38.780Z,31.60
2019-04-05T11:16:09.657Z,31.60
2019-04-05T11:18:40.416Z,31.60
2019-04-05T11:21:11.489Z,31.50
2019-04-05T11:24:08.704Z,31.50
2019-04-05T11:26:39.543Z,31.50
2019-04-05T11:29:14.368Z,31.40
2019-04-05T11:31:56.287Z,31.40
2019-04-05T11:34:17.407Z,31.40
2019-04-05T11:36:48.049Z,31.30
2019-04-05T11:39:18.894Z,31.30
2019-04-05T11:41:51.454Z,31.30
2019-04-05T11:44:26.626Z,31.30
2019-04-05T11:46:57.694Z,31.30
2019-04-05T11:49:29.867Z,31.20
2019-04-05T11:52:00.389Z,31.10
2019-04-05T11:54:50.024Z,31.20
2019-04-05T11:57:21.106Z,31.20
2019-04-05T11:59:51.586Z,31.20
2019-04-05T12:02:29.610Z,31.10
2019-04-05T12:05:02.189Z,31.10
2019-04-05T12:07:32.961Z,31.10
2019-04-05T12:10:03.773Z,31.00
2019-04-05T12:12:34.362Z,31.10
2019-04-05T12:15:06.478Z,31.10
2019-04-05T12:17:37.678Z,31.10
2019-04-05T12:20:08.992Z,31.00
2019-04-05T12:39:43.730Z,30.90
2019-04-05T12:42:14.556Z,30.90
2019-04-05T12:44:45.449Z,30.90
2019-04-05T12:47:16.301Z,30.90
2019-04-05T12:49:47.162Z,30.80
2019-04-05T12:52:22.923Z,30.90
2019-04-05T12:54:54.116Z,30.90
2019-04-05T12:57:22.262Z,30.90
2019-04-05T12:59:55.693Z,30.90
2019-04-05T13:02:33.318Z,30.90
2019-04-05T13:04:57.243Z,30.90
2019-04-05T13:07:30.027Z,30.90
2019-04-05T13:10:00.418Z,30.90
2019-04-05T13:12:30.904Z,30.90
2019-04-05T13:15:12.170Z,30.80
2019-04-05T13:17:33.547Z,30.90
2019-04-05T13:20:04.597Z,30.90
2019-04-05T13:22:35.135Z,30.90
2019-04-05T13:25:10.751Z,30.70
2019-04-05T13:27:41.239Z,30.70
2019-04-05T13:30:11.369Z,30.70
2019-04-05T13:32:41.761Z,30.70
2019-04-05T13:35:12.835Z,30.80
2019-04-05T13:37:43.534Z,30.80
2019-04-05T13:40:14.022Z,30.70
2019-04-05T13:42:44.582Z,30.60
2019-04-05T13:45:15.886Z,30.70
2019-04-05T13:47:46.285Z,30.60
2019-04-05T13:50:19.448Z,30.60
2019-04-05T13:52:49.387Z,30.60
2019-04-05T13:55:19.975Z,30.60
2019-04-05T13:57:50.529Z,30.60
2019-04-05T14:00:21.471Z,30.50
2019-04-05T14:02:51.920Z,30.60
2019-04-05T14:05:22.810Z,30.50
2019-04-05T14:08:09.128Z,30.50
2019-04-05T14:10:27.223Z,30.50
2019-04-05T14:12:57.607Z,30.60
2019-04-05T14:15:28.003Z,30.60
2019-04-05T14:17:58.580Z,30.50
2019-04-05T14:20:29.050Z,30.50
2019-04-05T14:22:59.442Z,30.50
2019-04-05T14:25:30.225Z,30.50
2019-04-05T14:28:02.477Z,30.50
2019-04-05T14:30:34.959Z,30.50
2019-04-05T14:33:05.267Z,30.40
2019-04-05T14:35:35.655Z,30.40
2019-04-05T14:38:06.392Z,30.40
2019-04-05T14:40:36.938Z,30.40
2019-04-05T14:43:07.349Z,30.30
2019-04-05T14:45:37.721Z,30.30
2019-04-05T14:48:08.281Z,30.40
2019-04-05T14:50:38.656Z,30.50
2019-04-05T14:53:09.049Z,30.50
2019-04-05T14:55:39.609Z,30.50
2019-04-05T14:58:10.582Z,30.50
2019-04-05T15:00:41.285Z,30.40
2019-04-05T15:03:11.840Z,30.40
2019-04-05T15:05:42.240Z,30.40
2019-04-05T15:08:14.083Z,30.30
2019-04-05T15:10:44.822Z,30.30
2019-04-05T15:13:15.206Z,30.30
2019-04-05T15:15:45.615Z,30.30
2019-04-05T15:18:16.155Z,30.30
2019-04-05T15:20:48.115Z,30.30
2019-04-05T15:23:18.545Z,30.20
2019-04-05T15:25:49.846Z,30.20
2019-04-05T15:28:22.454Z,30.20
2019-04-05T15:30:55.908Z,30.20
2019-04-05T15:33:25.562Z,30.30
2019-04-05T15:36:00.128Z,30.20
2019-04-05T15:38:31.336Z,30.20
2019-04-05T15:41:00.960Z,30.20
2019-04-05T15:43:31.451Z,30.20
2019-04-05T15:46:02.073Z,30.20
2019-04-05T15:48:32.453Z,30.20
2019-04-05T15:51:02.851Z,30.20
2019-04-05T15:53:33.406Z,30.20
2019-04-05T15:56:04.365Z,30.20
2019-04-05T15:58:35.458Z,30.10
2019-04-05T16:01:06.042Z,30.10
2019-04-05T16:03:37.033Z,30.10
2019-04-05T16:06:07.946Z,30.10
2019-04-05T16:08:40.285Z,30.20
2019-04-05T16:11:10.662Z,30.20
2019-04-05T16:13:41.337Z,30.20
2019-04-05T16:16:11.719Z,30.10
2019-04-05T16:18:42.297Z,30.10
2019-04-05T16:21:12.859Z,30.10
2019-04-05T16:23:43.476Z,30.10
2019-04-05T16:26:13.906Z,30.00
2019-04-05T16:28:44.594Z,30.00
2019-04-05T16:31:16.334Z,30.00
2019-04-05T16:33:46.872Z,30.10
2019-04-05T16:36:17.525Z,30.10
2019-04-05T16:38:47.965Z,30.10
2019-04-05T16:41:18.366Z,30.10
2019-04-05T16:43:49.315Z,30.10
2019-04-05T16:46:22.651Z,30.10
2019-04-05T16:48:53.238Z,30.10
2019-04-05T16:51:24.369Z,30.10
2019-04-05T16:54:03.223Z,30.10
2019-04-05T16:56:33.692Z,30.10
2019-04-05T16:59:04.099Z,30.00
2019-04-05T17:01:34.682Z,30.00
2019-04-05T17:04:05.306Z,30.10
2019-04-05T17:06:35.967Z,30.10
2019-04-05T17:09:14.942Z,30.10
2019-04-05T17:11:46.169Z,30.10
2019-04-05T17:14:16.939Z,30.10
2019-04-05T17:16:47.357Z,30.10
2019-04-05T17:19:17.766Z,30.10
2019-04-05T17:21:48.355Z,30.00
2019-04-05T17:24:18.838Z,30.00
2019-04-05T17:26:49.299Z,30.00
2019-04-05T17:29:19.867Z,29.90
2019-04-05T17:31:50.268Z,30.00
2019-04-05T17:34:20.711Z,29.90
2019-04-05T17:36:51.304Z,29.90
2019-04-05T17:39:21.707Z,29.90
2019-04-05T17:41:52.118Z,30.00
2019-04-05T17:44:22.690Z,29.90
2019-04-05T17:46:53.458Z,29.90
2019-04-05T17:49:23.857Z,29.80
2019-04-05T17:51:54.427Z,29.90
2019-04-05T17:54:24.867Z,30.00
2019-04-05T17:56:55.270Z,29.90
2019-04-05T17:59:25.858Z,29.80
2019-04-05T18:01:56.387Z,29.80
2019-04-05T18:04:26.862Z,29.80
2019-04-05T18:06:57.454Z,29.80
2019-04-05T18:09:28.428Z,29.80
2019-04-05T18:11:58.839Z,29.80
2019-04-05T18:14:29.669Z,29.80
2019-04-05T18:17:00.066Z,29.90
2019-04-05T18:19:30.479Z,29.80
2019-04-05T18:22:01.177Z,29.80
2019-04-05T18:24:31.910Z,29.90
2019-04-05T18:27:02.562Z,29.90
2019-04-05T18:29:34.967Z,29.80
2019-04-05T18:32:05.807Z,29.80
2019-04-05T18:34:36.226Z,29.80
2019-04-05T18:37:07.026Z,29.80
2019-04-05T18:39:37.581Z,29.80
2019-04-05T18:42:08.647Z,29.80
2019-04-05T18:44:41.066Z,29.80
2019-04-05T18:47:15.187Z,29.80
2019-04-05T18:49:46.615Z,29.80
2019-04-05T18:52:17.510Z,29.80
2019-04-05T18:54:48.937Z,29.70
2019-04-05T18:57:22.043Z,29.80
2019-04-05T18:59:53.615Z,29.70
2019-04-05T19:02:25.817Z,29.70
2019-04-05T19:04:56.798Z,29.80
2019-04-05T19:07:27.559Z,29.80
2019-04-05T19:10:01.563Z,29.70
2019-04-05T19:12:53.178Z,29.70
2019-04-05T19:15:24.549Z,29.70
2019-04-05T19:17:56.089Z,29.70
2019-04-05T19:20:26.779Z,29.70
2019-04-05T19:22:58.165Z,29.60
2019-04-05T19:25:50.648Z,29.60
2019-04-05T19:28:21.606Z,29.60
2019-04-05T19:48:46.074Z,29.50
2019-04-05T19:51:17.254Z,29.40
2019-04-05T19:53:47.958Z,29.50
2019-04-05T19:56:18.846Z,29.50
2019-04-05T19:58:49.281Z,29.40
2019-04-05T20:01:19.942Z,29.40
2019-04-05T20:03:50.815Z,29.40
2019-04-05T20:06:21.523Z,29.40
2019-04-05T20:08:52.178Z,29.30
2019-04-05T20:14:12.891Z,29.30
2019-04-05T20:16:43.471Z,29.20
2019-04-05T20:19:14.057Z,29.20
2019-04-05T20:22:04.226Z,29.20
2019-04-05T20:24:35.038Z,29.10
2019-04-05T20:27:05.807Z,29.20
2019-04-05T20:29:36.704Z,29.10
2019-04-05T20:32:07.507Z,29.10
2019-04-05T20:34:38.523Z,29.10
2019-04-05T20:37:09.758Z,29.10
2019-04-05T20:39:40.761Z,29.10
2019-04-05T20:42:11.523Z,29.00
2019-04-05T20:44:42.448Z,29.00
2019-04-05T20:47:13.225Z,29.00
2019-04-05T20:49:44.061Z,29.00
2019-04-05T20:52:15.268Z,29.00
2019-04-05T20:54:46.046Z,28.90
2019-04-05T20:57:37.118Z,29.00
2019-04-05T21:00:11.504Z,29.00
2019-04-05T21:02:42.374Z,29.00
2019-04-05T21:05:13.066Z,28.90
2019-04-05T21:07:43.800Z,28.90
2019-04-05T21:10:14.658Z,28.90
2019-04-05T21:12:47.254Z,28.90
2019-04-05T21:15:17.959Z,28.80
2019-04-05T21:17:49.039Z,28.80
2019-04-05T21:20:19.977Z,28.80
2019-04-05T21:22:50.655Z,28.80
2019-04-05T21:25:21.606Z,28.80
2019-04-05T21:27:54.343Z,28.80
2019-04-05T21:30:25.363Z,28.80
2019-04-05T21:32:56.240Z,28.80
2019-04-05T21:35:26.792Z,28.80
2019-04-05T21:37:57.504Z,28.80
2019-04-05T21:40:28.074Z,28.80
2019-04-05T21:42:59.053Z,28.80
2019-04-05T21:45:30.048Z,28.80
2019-04-05T21:48:01.675Z,28.80
2019-04-05T21:50:32.496Z,28.70
2019-04-05T21:53:03.863Z,28.70
2019-04-05T21:55:34.762Z,28.70
2019-04-05T21:58:05.622Z,28.70
2019-04-05T22:00:44.283Z,28.70
2019-04-05T22:03:15.139Z,28.70
2019-04-05T22:05:45.994Z,28.70
2019-04-05T22:08:16.712Z,28.70
2019-04-05T22:10:47.299Z,28.70
2019-04-05T22:13:27.978Z,28.70
2019-04-05T22:15:59.106Z,28.60
2019-04-05T22:18:29.946Z,28.70
2019-04-05T22:21:00.870Z,28.60
2019-04-05T22:23:32.118Z,28.60
2019-04-05T22:26:02.922Z,28.60
2019-04-05T22:28:38.235Z,28.60
2019-04-05T22:31:08.999Z,28.60
2019-04-05T22:33:39.681Z,28.60
2019-04-05T22:36:10.268Z,28.50
2019-04-05T22:38:41.449Z,28.50
2019-04-05T22:41:12.229Z,28.50
2019-04-05T22:43:42.825Z,28.50
2019-04-05T22:46:13.845Z,28.50
2019-04-05T22:48:55.827Z,28.50
2019-04-05T22:51:26.592Z,28.50
2019-04-05T22:53:57.581Z,28.50
2019-04-05T22:56:28.293Z,28.50
2019-04-05T22:58:59.327Z,28.50
2019-04-05T23:01:30.156Z,28.50
2019-04-05T23:04:01.012Z,28.50
2019-04-05T23:06:31.787Z,28.50
2019-04-05T23:09:02.686Z,28.50
2019-04-05T23:11:33.749Z,28.40
2019-04-05T23:14:06.636Z,28.40
2019-04-05T23:16:37.569Z,28.40
2019-04-05T23:19:08.156Z,28.40
2019-04-05T23:21:39.271Z,28.40
2019-04-05T23:24:10.316Z,28.40
2019-04-05T23:26:41.330Z,28.40
2019-04-05T23:29:12.372Z,28.40
2019-04-05T23:31:43.200Z,28.40
2019-04-05T23:34:16.146Z,28.40
2019-04-05T23:36:47.171Z,28.40
2019-04-05T23:39:18.039Z,28.40
2019-04-05T23:41:48.902Z,28.40
2019-04-05T23:44:19.947Z,28.40
2019-04-05T23:46:52.621Z,28.40
2019-04-05T23:49:22.745Z,28.40
2019-04-05T23:51:53.824Z,28.40
2019-04-05T23:54:24.710Z,28.40
2019-04-05T23:56:56.055Z,28.50
2019-04-05T23:59:27.185Z,28.40
